Time;durP1;ratioP1;P1;durP2;ratioP2;P2;SDS_P1;SDS_P2;PMS_P1;PMS_P2;Temp;Humidity;BMP_temperature;BMP_pressure;BME280_temperature;BME280_humidity;BME280_pressure;Samples;Min_cycle;Max_cycle;Signal;HPM_P1;HPM_P2
2024/02/21 00:00:20;;;;;;;12.63;8.00;;;10.40;99.90;;;;;;5041551;28;20025;-34
2024/02/21 00:02:45;;;;;;;11.77;7.55;;;10.40;99.90;;;;;;5041745;28;20029;-37
2024/02/21 00:05:11;;;;;;;12.35;7.45;;;10.40;99.90;;;;;;5040420;28;20033;-36
2024/02/21 00:07:36;;;;;;;11.70;7.75;;;10.40;99.90;;;;;;5041116;28;20021;-36
2024/02/21 00:10:03;;;;;;;9.50;6.80;;;10.40;99.90;;;;;;5042299;28;20029;-36
2024/02/21 00:12:28;;;;;;;11.32;6.97;;;10.30;99.90;;;;;;5040534;28;20040;-36
2024/02/21 00:14:54;;;;;;;13.18;6.78;;;10.30;99.90;;;;;;5041996;28;20062;-36
2024/02/21 00:17:20;;;;;;;12.68;7.63;;;10.30;99.90;;;;;;5040860;28;20476;-38
2024/02/21 00:19:45;;;;;;;12.63;7.75;;;10.40;99.90;;;;;;5041653;28;20025;-35
2024/02/21 00:22:11;;;;;;;10.52;6.55;;;10.40;99.90;;;;;;5041293;28;20743;-36
2024/02/21 00:24:39;;;;;;;10.02;6.90;;;10.40;99.90;;;;;;5040302;28;20041;-35
2024/02/21 00:27:05;;;;;;;12.55;6.97;;;10.40;99.90;;;;;;5040649;28;20460;-37
2024/02/21 00:29:31;;;;;;;8.57;6.18;;;10.30;99.90;;;;;;5041013;28;20068;-38
2024/02/21 00:31:56;;;;;;;9.10;6.40;;;10.40;99.90;;;;;;5041269;28;20032;-35
2024/02/21 00:34:22;;;;;;;9.30;6.40;;;10.40;99.90;;;;;;5041006;28;20481;-37
2024/02/21 00:36:50;;;;;;;12.00;6.43;;;10.30;99.90;;;;;;5041539;28;20526;-37
2024/02/21 00:39:15;;;;;;;11.88;6.75;;;10.40;99.90;;;;;;5040692;28;20424;-36
2024/02/21 00:41:41;;;;;;;9.65;6.63;;;10.40;99.90;;;;;;5041072;28;20587;-37
2024/02/21 00:44:07;;;;;;;8.75;6.40;;;10.40;99.90;;;;;;5040267;28;20894;-38
2024/02/21 00:46:32;;;;;;;12.13;7.35;;;10.40;99.90;;;;;;5040803;28;20025;-33
2024/02/21 00:48:58;;;;;;;12.13;7.95;;;10.40;99.90;;;;;;5040640;28;20120;-38
2024/02/21 00:51:23;;;;;;;11.23;7.30;;;10.30;99.90;;;;;;5041012;28;20483;-32
2024/02/21 00:53:49;;;;;;;11.73;7.40;;;10.30;99.90;;;;;;5040354;28;20476;-32
2024/02/21 00:56:16;;;;;;;9.63;6.68;;;10.30;99.90;;;;;;5040194;28;20086;-35
2024/02/21 00:58:42;;;;;;;10.57;6.63;;;10.30;99.90;;;;;;5040505;28;20750;-35
2024/02/21 01:01:07;;;;;;;10.65;6.20;;;10.30;99.90;;;;;;5040340;28;20078;-38
2024/02/21 01:03:39;;;;;;;10.52;6.82;;;10.30;99.90;;;;;;5040582;28;20148;-38
2024/02/21 01:06:04;;;;;;;12.13;7.00;;;10.30;99.90;;;;;;5040669;28;20033;-34
2024/02/21 01:08:30;;;;;;;11.15;6.30;;;10.30;99.90;;;;;;5039494;28;20033;-32
2024/02/21 01:10:55;;;;;;;7.65;5.82;;;10.30;99.90;;;;;;5040236;28;20115;-34
2024/02/21 01:13:24;;;;;;;8.27;5.82;;;10.30;99.90;;;;;;5039896;28;20051;-34
2024/02/21 01:15:49;;;;;;;9.38;6.30;;;10.30;99.90;;;;;;5039914;28;20025;-36
2024/02/21 01:18:15;;;;;;;9.70;6.38;;;10.30;99.90;;;;;;5040453;28;20025;-35
2024/02/21 01:20:40;;;;;;;8.75;5.80;;;10.30;99.90;;;;;;5040179;28;20017;-37
2024/02/21 01:23:06;;;;;;;11.35;6.43;;;10.30;99.90;;;;;;5038761;28;20545;-36
2024/02/21 01:25:41;;;;;;;11.27;7.35;;;10.30;99.90;;;;;;5039827;28;20182;-33
2024/02/21 01:28:09;;;;;;;10.15;6.70;;;10.30;99.90;;;;;;5039597;28;20033;-36
2024/02/21 01:30:35;;;;;;;9.82;6.50;;;10.30;99.90;;;;;;5039607;28;20132;-34
2024/02/21 01:33:01;;;;;;;10.57;6.60;;;10.30;99.90;;;;;;5039118;28;20432;-35
2024/02/21 01:35:26;;;;;;;10.82;6.22;;;10.30;99.90;;;;;;5038259;28;20029;-34
2024/02/21 01:37:52;;;;;;;12.70;6.82;;;10.30;99.90;;;;;;5039527;28;20040;-36
2024/02/21 01:40:17;;;;;;;11.30;6.55;;;10.30;99.90;;;;;;5039304;28;20021;-34
2024/02/21 01:42:43;;;;;;;10.70;6.20;;;10.30;99.90;;;;;;5039430;28;20036;-37
2024/02/21 01:45:09;;;;;;;11.07;6.55;;;10.30;99.90;;;;;;5039134;28;20025;-35
2024/02/21 01:47:36;;;;;;;8.75;5.65;;;10.30;99.90;;;;;;5039500;28;20591;-34
2024/02/21 01:50:02;;;;;;;10.80;6.32;;;10.30;99.90;;;;;;5038193;28;20086;-35
2024/02/21 01:52:33;;;;;;;9.15;6.05;;;10.30;99.90;;;;;;5039235;28;20372;-36
2024/02/21 01:54:59;;;;;;;10.95;6.05;;;10.30;99.90;;;;;;5039452;28;20170;-36
2024/02/21 01:57:25;;;;;;;8.30;5.95;;;10.30;99.90;;;;;;5038782;28;20029;-36
2024/02/21 01:59:51;;;;;;;9.75;5.70;;;10.30;99.90;;;;;;5039443;28;20028;-38
2024/02/21 02:02:17;;;;;;;9.30;5.82;;;10.30;99.90;;;;;;5038897;28;20056;-41
2024/02/21 02:04:43;;;;;;;7.10;5.38;;;10.30;99.90;;;;;;5038376;28;20072;-37
2024/02/21 02:07:09;;;;;;;8.63;5.50;;;10.30;99.90;;;;;;5028069;28;20053;-37
2024/02/21 02:09:35;;;;;;;8.18;5.75;;;10.30;99.90;;;;;;5039218;28;20183;-35
2024/02/21 02:12:01;;;;;;;8.60;5.93;;;10.30;99.90;;;;;;5037937;28;20029;-31
2024/02/21 02:14:27;;;;;;;10.68;6.22;;;10.30;99.90;;;;;;5038739;28;20041;-37
2024/02/21 02:16:52;;;;;;;7.30;5.68;;;10.20;99.90;;;;;;5039020;28;20373;-37
2024/02/21 02:19:18;;;;;;;8.00;5.47;;;10.30;99.90;;;;;;5038055;28;20035;-37
2024/02/21 02:21:55;;;;;;;8.77;5.47;;;10.20;99.90;;;;;;5038462;28;20028;-37
2024/02/21 02:24:22;;;;;;;8.13;5.68;;;10.30;99.90;;;;;;5038731;28;20044;-37
2024/02/21 02:26:47;;;;;;;8.88;6.03;;;10.30;99.90;;;;;;5037795;28;20033;-36
2024/02/21 02:29:13;;;;;;;8.48;5.40;;;10.20;99.90;;;;;;5039142;28;20033;-37
2024/02/21 02:31:38;;;;;;;9.80;5.60;;;10.20;99.90;;;;;;5038674;28;20029;-37
2024/02/21 02:34:04;;;;;;;8.35;5.82;;;10.20;99.90;;;;;;5037685;28;20457;-38
2024/02/21 02:36:33;;;;;;;8.02;5.38;;;10.20;99.90;;;;;;5038633;28;20033;-36
2024/02/21 02:38:59;;;;;;;8.98;6.07;;;10.20;99.90;;;;;;5038429;28;20021;-33
2024/02/21 02:41:24;;;;;;;9.75;6.05;;;10.20;99.90;;;;;;5038498;28;20086;-36
2024/02/21 02:43:50;;;;;;;7.85;5.80;;;10.20;99.90;;;;;;5038484;28;20120;-36
2024/02/21 02:46:16;;;;;;;11.55;7.00;;;10.20;99.90;;;;;;5038160;28;20029;-38
2024/02/21 02:48:41;;;;;;;8.82;6.13;;;10.20;99.90;;;;;;5043250;28;20064;-35
2024/02/21 02:51:07;;;;;;;9.13;6.53;;;10.20;99.90;;;;;;5041780;28;20039;-36
2024/02/21 02:53:32;;;;;;;9.32;6.20;;;10.20;99.90;;;;;;5041055;28;20521;-35
2024/02/21 02:55:58;;;;;;;8.00;5.13;;;10.20;99.90;;;;;;5041313;28;20044;-33
2024/02/21 02:58:23;;;;;;;10.70;6.55;;;10.20;99.90;;;;;;5040531;28;20039;-36
2024/02/21 03:00:49;;;;;;;8.63;5.97;;;10.20;99.90;;;;;;5040553;28;20029;-38
2024/02/21 03:03:15;;;;;;;8.90;6.00;;;10.20;99.90;;;;;;5040764;28;20036;-36
2024/02/21 03:05:40;;;;;;;7.90;6.55;;;10.20;99.90;;;;;;5042134;28;20562;-38
2024/02/21 03:08:07;;;;;;;9.30;5.70;;;10.20;99.90;;;;;;5041778;28;20259;-38
2024/02/21 03:10:35;;;;;;;8.88;5.88;;;10.20;99.90;;;;;;5042031;28;20064;-36
2024/02/21 03:13:01;;;;;;;7.75;5.43;;;10.20;99.90;;;;;;5042068;28;20045;-38
2024/02/21 03:15:35;;;;;;;9.05;5.32;;;10.20;99.90;;;;;;5041778;28;20035;-37
2024/02/21 03:18:01;;;;;;;7.70;5.65;;;10.20;99.90;;;;;;5041495;28;20369;-37
2024/02/21 03:20:28;;;;;;;7.97;5.63;;;10.20;99.90;;;;;;5041901;28;20871;-38
2024/02/21 03:22:53;;;;;;;8.95;5.68;;;10.20;99.90;;;;;;5041587;28;20143;-37
2024/02/21 03:25:19;;;;;;;7.55;5.10;;;10.20;99.90;;;;;;5042434;28;20035;-36
2024/02/21 03:27:45;;;;;;;6.90;5.40;;;10.20;99.90;;;;;;5041448;28;20086;-36
2024/02/21 03:30:12;;;;;;;9.00;5.93;;;10.20;99.90;;;;;;5041168;28;20041;-35
2024/02/21 03:32:39;;;;;;;9.95;6.00;;;10.20;99.90;;;;;;5040995;28;20025;-36
2024/02/21 03:35:11;;;;;;;7.20;5.45;;;10.20;99.90;;;;;;5030268;28;20016;-36
2024/02/21 03:37:36;;;;;;;6.68;5.22;;;10.20;99.90;;;;;;5041700;28;20107;-36
2024/02/21 03:40:02;;;;;;;7.10;5.22;;;10.20;99.90;;;;;;5042135;28;20028;-40
2024/02/21 03:42:29;;;;;;;7.90;5.40;;;10.20;99.90;;;;;;5040580;28;20017;-37
2024/02/21 03:44:58;;;;;;;7.68;5.22;;;10.20;99.90;;;;;;5041504;28;20075;-36
2024/02/21 03:47:23;;;;;;;7.25;5.43;;;10.20;99.90;;;;;;5041510;28;20122;-37
2024/02/21 03:49:50;;;;;;;8.38;5.60;;;10.20;99.90;;;;;;5041162;28;20151;-34
2024/02/21 03:52:16;;;;;;;6.60;5.03;;;10.20;99.90;;;;;;5042268;28;20036;-37
2024/02/21 03:54:42;;;;;;;7.18;4.68;;;10.20;99.90;;;;;;5042353;28;20032;-35
2024/02/21 03:57:08;;;;;;;8.00;4.60;;;10.20;99.90;;;;;;5040672;28;20036;-37
2024/02/21 03:59:33;;;;;;;7.18;4.38;;;10.20;99.90;;;;;;5041336;28;20037;-37
2024/02/21 04:01:59;;;;;;;7.53;4.25;;;10.20;99.90;;;;;;5041327;28;20025;-37
2024/02/21 04:04:25;;;;;;;7.00;4.60;;;10.20;99.90;;;;;;5040492;28;20125;-37
2024/02/21 04:06:51;;;;;;;6.43;4.20;;;10.20;99.90;;;;;;5041837;28;20027;-36
2024/02/21 04:09:17;;;;;;;5.07;4.38;;;10.20;99.90;;;;;;5040940;28;20129;-37
2024/02/21 04:11:43;;;;;;;6.32;3.80;;;10.20;99.90;;;;;;5040811;28;20045;-35
2024/02/21 04:14:09;;;;;;;5.88;3.92;;;10.20;99.90;;;;;;5041432;28;20032;-36
2024/02/21 04:16:35;;;;;;;9.00;4.43;;;10.20;99.90;;;;;;5041568;28;20094;-37
2024/02/21 04:19:02;;;;;;;5.75;3.60;;;10.20;99.90;;;;;;5040829;28;20023;-33
2024/02/21 04:21:27;;;;;;;4.35;3.47;;;10.20;99.90;;;;;;5041203;28;20507;-37
2024/02/21 04:23:53;;;;;;;7.45;4.20;;;10.20;99.90;;;;;;5040818;28;20041;-37
2024/02/21 04:26:18;;;;;;;7.65;4.40;;;10.20;99.90;;;;;;5040231;28;20025;-34
2024/02/21 04:28:45;;;;;;;7.85;4.03;;;10.20;99.90;;;;;;5040872;28;20108;-36
2024/02/21 04:31:11;;;;;;;6.05;3.83;;;10.20;99.90;;;;;;5040148;28;20021;-35
2024/02/21 04:33:37;;;;;;;5.88;3.70;;;10.20;99.90;;;;;;5041003;28;20025;-35
2024/02/21 04:36:02;;;;;;;7.28;3.97;;;10.20;99.90;;;;;;5040498;28;20025;-38
2024/02/21 04:38:34;;;;;;;5.50;3.53;;;10.20;99.90;;;;;;5040071;28;20036;-33
2024/02/21 04:41:00;;;;;;;4.05;3.13;;;10.20;99.90;;;;;;5040801;28;20692;-39
2024/02/21 04:43:28;;;;;;;3.65;3.15;;;10.20;99.90;;;;;;5040350;28;20033;-37
2024/02/21 04:45:53;;;;;;;5.65;2.97;;;10.20;99.90;;;;;;5039850;28;20016;-31
2024/02/21 04:48:20;;;;;;;4.78;2.83;;;10.20;99.90;;;;;;5040490;28;20434;-37
2024/02/21 04:50:46;;;;;;;6.07;3.35;;;10.20;99.90;;;;;;5040880;28;20434;-34
2024/02/21 04:53:11;;;;;;;6.03;3.40;;;10.20;99.90;;;;;;5040095;28;20483;-36
2024/02/21 04:55:37;;;;;;;3.88;3.08;;;10.20;99.90;;;;;;5041044;28;20028;-32
2024/02/21 04:58:02;;;;;;;4.72;3.03;;;10.20;99.90;;;;;;5040000;28;20466;-35
2024/02/21 05:00:28;;;;;;;3.50;2.72;;;10.20;99.90;;;;;;5039803;28;20078;-34
2024/02/21 05:02:53;;;;;;;4.97;2.70;;;10.20;99.90;;;;;;5040151;28;20024;-37
2024/02/21 05:05:19;;;;;;;5.60;3.58;;;10.20;99.90;;;;;;5040176;28;20160;-35
2024/02/21 05:07:45;;;;;;;6.18;3.50;;;10.20;99.90;;;;;;5040282;28;20025;-32
2024/02/21 05:10:10;;;;;;;5.68;4.20;;;10.20;99.90;;;;;;5040047;28;20036;-37
2024/02/21 05:12:36;;;;;;;5.43;3.60;;;10.10;99.90;;;;;;5039536;28;20628;-35
2024/02/21 05:15:02;;;;;;;5.85;3.88;;;10.10;99.90;;;;;;5039630;28;20033;-36
2024/02/21 05:17:28;;;;;;;4.38;3.38;;;10.10;99.90;;;;;;5039908;28;20475;-37
2024/02/21 05:19:53;;;;;;;5.97;4.10;;;10.10;99.90;;;;;;5040481;28;20121;-37
2024/02/21 05:22:19;;;;;;;4.78;3.50;;;10.10;99.90;;;;;;5039506;28;20547;-33
2024/02/21 05:24:45;;;;;;;5.40;4.55;;;10.10;99.90;;;;;;5040206;28;20503;-34
2024/02/21 05:27:10;;;;;;;5.70;3.63;;;10.10;99.90;;;;;;5039596;28;20104;-31
2024/02/21 05:29:36;;;;;;;7.07;4.45;;;10.10;99.90;;;;;;5039403;28;20460;-35
2024/02/21 05:32:02;;;;;;;7.15;4.20;;;10.20;99.90;;;;;;5039464;28;20109;-35
2024/02/21 05:34:28;;;;;;;6.90;4.55;;;10.10;99.90;;;;;;5040462;28;20033;-33
2024/02/21 05:36:54;;;;;;;5.07;4.30;;;10.10;99.90;;;;;;5038933;28;20048;-33
2024/02/21 05:39:22;;;;;;;6.18;4.53;;;10.10;99.90;;;;;;5039622;28;20025;-35
2024/02/21 05:41:48;;;;;;;7.38;5.07;;;10.10;99.90;;;;;;5039330;28;20029;-33
2024/02/21 05:44:13;;;;;;;6.30;5.20;;;10.10;99.90;;;;;;5039535;28;20040;-36
2024/02/21 05:46:39;;;;;;;8.52;5.57;;;10.10;99.90;;;;;;5039865;28;20129;-35
2024/02/21 05:49:05;;;;;;;8.25;6.07;;;10.10;99.90;;;;;;5039086;28;20017;-33
2024/02/21 05:51:34;;;;;;;8.57;5.65;;;10.10;99.90;;;;;;5040126;28;20508;-39
2024/02/21 05:54:00;;;;;;;7.82;4.97;;;10.10;99.90;;;;;;5039823;28;20025;-35
2024/02/21 05:56:25;;;;;;;8.63;5.55;;;10.10;99.90;;;;;;5038808;28;20028;-34
2024/02/21 05:58:51;;;;;;;8.15;6.18;;;10.10;99.90;;;;;;5039467;28;20032;-36
2024/02/21 06:01:17;;;;;;;11.15;6.70;;;10.10;99.90;;;;;;5039691;28;20040;-33
2024/02/21 06:03:43;;;;;;;7.78;5.93;;;10.10;99.90;;;;;;5038824;28;20049;-36
2024/02/21 06:06:08;;;;;;;7.72;5.80;;;10.10;99.90;;;;;;5039422;28;20025;-38
2024/02/21 06:08:34;;;;;;;7.85;5.88;;;10.10;99.90;;;;;;5039501;28;20036;-37
2024/02/21 06:11:00;;;;;;;8.02;5.32;;;10.10;99.90;;;;;;5038480;28;20742;-36
2024/02/21 06:13:26;;;;;;;8.18;5.53;;;10.10;99.90;;;;;;5038853;28;20059;-38
2024/02/21 06:15:51;;;;;;;6.65;5.13;;;10.10;99.90;;;;;;5039222;28;20025;-37
2024/02/21 06:18:18;;;;;;;9.27;5.45;;;10.10;99.90;;;;;;5038631;28;20518;-36
2024/02/21 06:20:43;;;;;;;7.38;5.22;;;10.10;99.90;;;;;;5041263;28;20052;-35
2024/02/21 06:23:09;;;;;;;8.38;5.95;;;10.10;99.90;;;;;;5042915;28;20135;-38
2024/02/21 06:25:35;;;;;;;6.75;5.25;;;10.10;99.90;;;;;;5042206;28;20528;-40
2024/02/21 06:28:01;;;;;;;8.50;5.30;;;10.10;99.90;;;;;;5043519;28;20021;-33
2024/02/21 06:30:26;;;;;;;7.57;5.25;;;10.10;99.90;;;;;;5043083;28;20074;-35
2024/02/21 06:32:55;;;;;;;8.60;5.50;;;10.10;99.90;;;;;;5042574;28;20025;-36
2024/02/21 06:35:21;;;;;;;7.55;5.20;;;10.10;99.90;;;;;;5042927;28;20037;-36
2024/02/21 06:37:51;;;;;;;6.82;4.97;;;10.10;99.90;;;;;;5043277;28;20055;-34
2024/02/21 06:40:17;;;;;;;6.35;5.05;;;10.10;99.90;;;;;;5042988;28;20029;-36
2024/02/21 06:42:43;;;;;;;5.35;4.00;;;10.10;99.90;;;;;;5043124;28;20025;-37
2024/02/21 06:45:08;;;;;;;7.38;4.75;;;10.10;99.90;;;;;;5041279;28;20134;-35
2024/02/21 06:47:34;;;;;;;7.53;4.88;;;10.10;99.90;;;;;;5042918;28;20024;-35
2024/02/21 06:50:00;;;;;;;6.35;4.90;;;10.10;99.90;;;;;;5042324;28;20108;-35
2024/02/21 06:52:26;;;;;;;6.22;4.70;;;10.10;99.90;;;;;;5042066;28;20456;-34
2024/02/21 06:54:54;;;;;;;5.60;4.53;;;10.10;99.90;;;;;;5042529;28;20032;-37
2024/02/21 06:57:20;;;;;;;8.43;5.53;;;10.10;99.90;;;;;;5053829;28;20043;-37
2024/02/21 06:59:46;;;;;;;6.18;4.32;;;10.10;99.90;;;;;;5054643;28;20029;-38
2024/02/21 07:02:12;;;;;;;6.53;4.82;;;10.10;99.90;;;;;;5041757;28;20021;-35
2024/02/21 07:04:37;;;;;;;7.53;4.95;;;10.10;99.90;;;;;;5042554;28;20115;-37
2024/02/21 07:07:03;;;;;;;6.97;4.22;;;10.10;99.90;;;;;;5041418;28;20847;-34
2024/02/21 07:09:31;;;;;;;7.28;4.13;;;10.10;99.90;;;;;;5042065;28;20130;-35
2024/02/21 07:11:57;;;;;;;6.78;4.22;;;10.10;99.90;;;;;;5042027;28;20044;-35
2024/02/21 07:14:27;;;;;;;7.20;4.40;;;10.10;99.90;;;;;;5041932;28;20033;-36
2024/02/21 07:16:54;;;;;;;6.97;4.32;;;10.10;99.90;;;;;;5038480;28;20752;-37
2024/02/21 07:19:19;;;;;;;8.00;4.82;;;10.10;99.90;;;;;;5041668;28;20025;-36
2024/02/21 07:21:45;;;;;;;5.50;3.88;;;10.10;99.90;;;;;;5040542;28;20107;-36
2024/02/21 07:24:11;;;;;;;9.52;5.18;;;10.10;99.90;;;;;;5041521;28;20091;-35
2024/02/21 07:26:36;;;;;;;7.80;5.20;;;10.10;99.90;;;;;;5040841;28;20818;-34
2024/02/21 07:29:05;;;;;;;8.20;4.90;;;10.10;99.90;;;;;;5040970;28;20436;-37
2024/02/21 07:31:31;;;;;;;8.18;5.32;;;10.10;99.90;;;;;;5040900;28;20059;-36
2024/02/21 07:33:56;;;;;;;7.30;5.18;;;10.10;99.90;;;;;;5040947;28;20108;-35
2024/02/21 07:36:30;;;;;;;9.52;5.05;;;10.10;99.90;;;;;;5039702;28;20574;-37
2024/02/21 07:38:56;;;;;;;8.23;4.43;;;10.10;99.90;;;;;;5040876;28;20143;-34
2024/02/21 07:41:21;;;;;;;8.00;4.78;;;10.10;99.90;;;;;;5039908;28;20034;-36
2024/02/21 07:43:48;;;;;;;7.25;4.93;;;10.10;99.90;;;;;;5041713;28;20041;-35
2024/02/21 07:46:14;;;;;;;6.50;4.10;;;10.20;99.90;;;;;;5041118;28;20025;-34
2024/02/21 07:48:40;;;;;;;6.05;4.53;;;10.10;99.90;;;;;;5041414;28;20086;-35
2024/02/21 07:51:06;;;;;;;8.82;5.25;;;10.10;99.90;;;;;;5041423;28;20013;-34
2024/02/21 07:53:31;;;;;;;9.63;5.60;;;10.20;99.90;;;;;;5041008;28;20037;-38
2024/02/21 07:55:57;;;;;;;8.63;5.13;;;10.10;99.90;;;;;;5041016;28;20021;-37
2024/02/21 07:58:22;;;;;;;9.10;5.68;;;10.20;99.90;;;;;;5040371;28;20029;-36
2024/02/21 08:00:48;;;;;;;12.35;6.32;;;10.20;99.90;;;;;;5041055;28;20136;-34
2024/02/21 08:03:15;;;;;;;8.02;5.70;;;10.20;99.90;;;;;;5039742;28;20064;-38
2024/02/21 08:05:41;;;;;;;10.25;5.57;;;10.20;99.90;;;;;;5041364;28;20488;-34
2024/02/21 08:08:08;;;;;;;7.60;5.25;;;10.30;99.90;;;;;;5040869;28;20032;-34
2024/02/21 08:10:33;;;;;;;10.05;5.82;;;10.30;99.90;;;;;;5040558;28;20021;-35
2024/02/21 08:12:59;;;;;;;8.63;5.00;;;10.20;99.90;;;;;;5041134;28;20041;-32
2024/02/21 08:15:29;;;;;;;9.88;6.20;;;10.30;99.90;;;;;;5041344;28;20503;-34
2024/02/21 08:17:59;;;;;;;8.20;5.50;;;10.30;99.90;;;;;;5039953;28;20033;-36
2024/02/21 08:20:25;;;;;;;6.72;5.13;;;10.30;99.90;;;;;;5040723;28;20462;-37
2024/02/21 08:22:50;;;;;;;12.88;6.43;;;10.30;99.90;;;;;;5040751;28;20858;-36
2024/02/21 08:25:19;;;;;;;10.82;5.90;;;10.30;99.90;;;;;;5039781;28;20037;-38
2024/02/21 08:27:45;;;;;;;8.55;5.35;;;10.30;99.90;;;;;;5039955;28;20559;-38
2024/02/21 08:30:11;;;;;;;6.78;4.82;;;10.40;99.90;;;;;;5041069;28;20036;-37
2024/02/21 08:32:37;;;;;;;8.60;5.18;;;10.40;99.90;;;;;;5039066;28;20032;-33
2024/02/21 08:35:03;;;;;;;10.32;5.47;;;10.40;99.90;;;;;;5040014;28;20025;-35
2024/02/21 08:37:28;;;;;;;9.93;5.20;;;10.50;99.90;;;;;;5039051;28;20527;-35
2024/02/21 08:39:54;;;;;;;7.78;4.38;;;10.50;99.90;;;;;;5040140;28;20029;-36
2024/02/21 08:42:19;;;;;;;8.50;5.53;;;10.50;99.90;;;;;;5040379;28;20032;-34
2024/02/21 08:44:45;;;;;;;6.35;4.47;;;10.50;99.90;;;;;;5038951;28;20104;-37
2024/02/21 08:47:11;;;;;;;6.00;4.95;;;10.50;99.90;;;;;;5038616;28;20917;-36
2024/02/21 08:49:37;;;;;;;8.75;5.50;;;10.60;99.90;;;;;;5040090;28;20595;-33
2024/02/21 08:52:05;;;;;;;10.07;5.47;;;10.60;99.90;;;;;;5039678;28;20098;-32
2024/02/21 08:54:34;;;;;;;8.98;4.82;;;10.60;99.90;;;;;;5039678;28;20043;-36
2024/02/21 08:57:00;;;;;;;7.55;5.72;;;10.60;99.90;;;;;;5039852;28;20053;-37
2024/02/21 08:59:26;;;;;;;7.72;5.57;;;10.60;99.90;;;;;;5039201;28;20116;-35
2024/02/21 09:01:54;;;;;;;8.10;5.63;;;10.60;99.90;;;;;;5039765;28;20078;-34
2024/02/21 09:04:20;;;;;;;8.18;5.55;;;10.60;99.90;;;;;;5039007;28;20036;-36
2024/02/21 09:06:46;;;;;;;7.22;5.22;;;10.60;99.90;;;;;;5040206;28;20036;-35
2024/02/21 09:09:12;;;;;;;7.60;4.90;;;10.70;99.90;;;;;;5039844;28;20016;-38
2024/02/21 09:11:39;;;;;;;8.35;5.90;;;10.60;99.90;;;;;;5039693;28;20163;-37
2024/02/21 09:14:05;;;;;;;9.48;5.95;;;10.70;99.90;;;;;;5038954;28;20063;-37
2024/02/21 09:16:32;;;;;;;8.70;5.22;;;10.70;99.90;;;;;;5039774;28;20452;-37
2024/02/21 09:18:57;;;;;;;8.15;5.60;;;10.70;99.90;;;;;;5040176;28;20087;-38
2024/02/21 09:21:23;;;;;;;7.60;5.25;;;10.70;99.90;;;;;;5039098;28;20025;-34
2024/02/21 09:23:48;;;;;;;8.60;5.03;;;10.80;99.90;;;;;;5039838;28;20460;-37
2024/02/21 09:26:16;;;;;;;6.90;5.25;;;10.80;99.90;;;;;;5039752;28;20035;-36
2024/02/21 09:28:42;;;;;;;7.30;5.30;;;10.80;99.90;;;;;;5038524;28;20083;-37
2024/02/21 09:31:07;;;;;;;8.18;5.00;;;10.80;99.90;;;;;;5038976;28;20127;-37
2024/02/21 09:33:33;;;;;;;5.97;4.40;;;10.80;99.90;;;;;;5039277;28;20796;-35
2024/02/21 09:35:59;;;;;;;6.13;4.82;;;10.90;99.90;;;;;;5037520;28;20032;-35
2024/02/21 09:38:25;;;;;;;6.72;5.25;;;10.90;99.90;;;;;;5038905;28;20029;-34
2024/02/21 09:41:02;;;;;;;7.07;4.50;;;10.90;99.90;;;;;;5037793;28;20036;-34
2024/02/21 09:43:29;;;;;;;7.90;4.55;;;10.90;99.90;;;;;;5039274;28;20041;-37
2024/02/21 09:45:58;;;;;;;5.95;4.40;;;11.00;99.90;;;;;;5037514;28;20014;-36
2024/02/21 09:49:03;;;;;;;6.45;4.15;;;11.00;99.90;;;;;;5038407;28;20029;-33
2024/02/21 09:51:32;;;;;;;8.05;4.30;;;11.00;99.90;;;;;;5015366;28;20120;-35
2024/02/21 09:53:59;;;;;;;7.55;5.18;;;11.00;99.90;;;;;;5034989;28;20593;-38
2024/02/21 09:56:25;;;;;;;8.45;5.20;;;11.10;99.90;;;;;;5037435;28;20029;-38
2024/02/21 09:58:50;;;;;;;6.80;4.93;;;11.10;99.90;;;;;;5037404;28;20021;-34
2024/02/21 10:01:16;;;;;;;7.30;5.50;;;11.10;99.90;;;;;;5038209;28;20013;-32
2024/02/21 10:03:43;;;;;;;5.53;4.45;;;11.10;99.90;;;;;;5038155;28;20044;-34
2024/02/21 10:06:11;;;;;;;6.15;4.22;;;11.10;99.90;;;;;;5038318;28;20024;-36
2024/02/21 10:08:37;;;;;;;7.57;5.57;;;11.20;99.90;;;;;;5038576;28;20083;-35
2024/02/21 10:11:03;;;;;;;9.68;5.47;;;11.20;99.90;;;;;;5037412;28;20029;-35
2024/02/21 10:13:29;;;;;;;5.55;4.43;;;11.20;99.90;;;;;;5038867;28;20111;-36
2024/02/21 10:16:02;;;;;;;7.65;5.00;;;11.30;99.90;;;;;;5038457;28;20025;-36
2024/02/21 10:18:28;;;;;;;6.80;5.22;;;11.30;99.90;;;;;;5037919;28;20433;-35
2024/02/21 10:21:20;;;;;;;7.07;5.15;;;11.40;99.90;;;;;;5038741;28;20025;-37
2024/02/21 10:23:49;;;;;;;5.95;4.25;;;11.40;99.90;;;;;;5025372;28;20095;-38
2024/02/21 10:26:17;;;;;;;5.15;4.60;;;11.40;99.90;;;;;;5037773;28;20017;-36
2024/02/21 10:28:44;;;;;;;6.20;4.57;;;11.50;99.90;;;;;;5038442;28;20577;-34
2024/02/21 10:31:11;;;;;;;7.72;4.93;;;11.50;99.90;;;;;;5037320;28;20021;-34
2024/02/21 10:33:37;;;;;;;6.60;5.03;;;11.40;99.90;;;;;;5034789;28;20024;-37
2024/02/21 10:36:13;;;;;;;5.53;4.20;;;11.40;99.90;;;;;;5038641;28;20021;-36
2024/02/21 10:38:39;;;;;;;5.47;4.32;;;11.30;99.90;;;;;;5037238;28;20106;-35
2024/02/21 10:41:11;;;;;;;4.35;3.80;;;11.30;99.90;;;;;;5038755;28;20033;-34
2024/02/21 10:43:40;;;;;;;4.45;3.55;;;11.20;99.90;;;;;;5038216;28;20033;-33
2024/02/21 10:46:10;;;;;;;4.20;3.80;;;11.20;99.90;;;;;;5038510;28;20033;-34
2024/02/21 10:48:47;;;;;;;4.57;3.42;;;11.20;99.90;;;;;;5038830;28;20036;-36
2024/02/21 10:51:20;;;;;;;4.57;3.30;;;11.20;99.90;;;;;;5037677;28;20021;-34
2024/02/21 10:54:15;;;;;;;3.65;3.30;;;11.20;99.90;;;;;;5038481;28;20609;-35
2024/02/21 10:56:41;;;;;;;4.15;3.10;;;11.10;99.90;;;;;;5039497;28;20029;-35
2024/02/21 10:59:08;;;;;;;3.65;3.22;;;11.10;99.90;;;;;;5036928;28;20052;-33
2024/02/21 11:01:37;;;;;;;3.20;2.85;;;11.10;99.90;;;;;;5038203;28;20079;-34
2024/02/21 11:04:07;;;;;;;3.55;3.00;;;11.10;99.90;;;;;;5038401;28;20075;-38
2024/02/21 11:06:35;;;;;;;3.03;2.70;;;11.20;99.90;;;;;;5037863;28;20090;-34
2024/02/21 11:09:04;;;;;;;3.53;3.03;;;11.20;99.90;;;;;;5040918;28;20033;-34
2024/02/21 11:11:40;;;;;;;3.67;3.17;;;11.30;99.90;;;;;;5042001;28;20051;-33
2024/02/21 11:14:19;;;;;;;4.18;3.35;;;11.30;99.90;;;;;;5041782;28;20021;-36
2024/02/21 11:16:44;;;;;;;5.93;3.65;;;11.30;99.90;;;;;;5042031;28;20033;-35
2024/02/21 11:19:21;;;;;;;3.78;3.13;;;11.30;99.90;;;;;;5041042;28;20513;-35
2024/02/21 11:21:47;;;;;;;3.45;3.15;;;11.30;99.90;;;;;;5042489;28;20025;-35
2024/02/21 11:24:14;;;;;;;3.88;3.42;;;11.40;99.90;;;;;;5042675;28;20136;-37
2024/02/21 11:26:42;;;;;;;4.90;3.78;;;11.30;99.90;;;;;;5041059;28;20025;-34
2024/02/21 11:29:09;;;;;;;4.03;3.58;;;11.40;99.90;;;;;;5041474;28;20112;-37
2024/02/21 11:31:43;;;;;;;6.18;4.15;;;11.40;99.90;;;;;;5042326;28;20091;-35
2024/02/21 11:34:10;;;;;;;4.68;4.20;;;11.40;99.90;;;;;;5040392;28;20888;-37
2024/02/21 11:36:45;;;;;;;8.57;5.15;;;11.40;99.90;;;;;;5041267;28;20025;-34
2024/02/21 11:39:11;;;;;;;7.50;4.72;;;11.30;99.90;;;;;;5041441;28;20029;-33
2024/02/21 11:41:36;;;;;;;8.15;4.90;;;11.40;99.90;;;;;;5041478;28;20051;-36
2024/02/21 11:44:03;;;;;;;6.70;4.60;;;11.30;99.90;;;;;;5041457;28;20037;-37
2024/02/21 11:46:29;;;;;;;6.03;4.28;;;11.30;99.90;;;;;;5030720;28;20369;-34
2024/02/21 11:48:55;;;;;;;6.05;4.10;;;11.20;99.90;;;;;;5040178;28;20064;-36
2024/02/21 11:51:29;;;;;;;5.10;3.92;;;11.20;99.90;;;;;;5041038;28;20025;-31
2024/02/21 11:53:54;;;;;;;5.07;3.80;;;11.30;99.90;;;;;;5040855;28;20810;-34
2024/02/21 11:56:20;;;;;;;5.93;4.10;;;11.20;99.90;;;;;;5039748;28;20037;-31
2024/02/21 11:58:49;;;;;;;6.07;4.07;;;11.20;99.90;;;;;;5040458;28;20021;-37
2024/02/21 12:01:15;;;;;;;7.88;4.82;;;11.20;99.90;;;;;;5040081;28;20452;-34
2024/02/21 12:03:42;;;;;;;6.30;4.65;;;11.10;99.90;;;;;;5040921;28;20040;-35
2024/02/21 12:06:08;;;;;;;6.60;3.88;;;11.10;99.90;;;;;;5040130;28;20033;-36
2024/02/21 12:08:43;;;;;;;4.72;4.05;;;11.10;99.90;;;;;;5040359;28;20082;-36
2024/02/21 12:11:21;;;;;;;6.28;3.80;;;11.20;99.90;;;;;;5040508;28;20137;-35
2024/02/21 12:13:47;;;;;;;7.28;4.55;;;11.20;99.90;;;;;;5021326;28;20035;-34
2024/02/21 12:16:16;;;;;;;5.97;3.80;;;11.20;99.90;;;;;;5035067;28;20124;-32
2024/02/21 12:18:41;;;;;;;5.05;4.53;;;11.30;99.90;;;;;;5040921;28;20079;-33
2024/02/21 12:21:08;;;;;;;5.68;3.78;;;11.30;99.90;;;;;;5040305;28;20025;-37
2024/02/21 12:23:33;;;;;;;7.53;4.05;;;11.30;99.90;;;;;;5040271;28;20464;-37
2024/02/21 12:25:59;;;;;;;8.10;4.03;;;11.40;99.90;;;;;;5040645;28;20102;-38
2024/02/21 12:28:25;;;;;;;7.85;3.88;;;11.50;99.90;;;;;;5041177;28;20036;-35
2024/02/21 12:30:52;;;;;;;6.75;3.63;;;11.60;99.90;;;;;;5039915;28;20090;-34
2024/02/21 12:33:18;;;;;;;4.82;3.67;;;11.70;99.90;;;;;;5039953;28;20795;-36
2024/02/21 12:35:43;;;;;;;6.68;3.80;;;11.80;99.90;;;;;;5040632;28;20025;-38
2024/02/21 12:38:09;;;;;;;4.78;3.50;;;12.00;99.90;;;;;;5039243;28;20035;-37
2024/02/21 12:40:35;;;;;;;4.03;2.90;;;12.00;99.90;;;;;;5040495;28;20106;-36
2024/02/21 12:43:04;;;;;;;3.40;2.83;;;12.10;99.90;;;;;;5040540;28;20029;-37